Time;durP1;ratioP1;P1;durP2;ratioP2;P2;SDS_P1;SDS_P2;PMS_P1;PMS_P2;Temp;Humidity;BMP_temperature;BMP_pressure;BME280_temperature;BME280_humidity;BME280_pressure;Samples;Min_cycle;Max_cycle;Signal;HPM_P1;HPM_P2
2021/05/13 00:00:01;;;;;;;11.35;3.78;;;23.40;44.80;;;;;;1040847;28;20029;-81
2021/05/13 00:00:32;;;;;;;8.88;3.67;;;23.40;44.90;;;;;;1041352;28;20386;-80
2021/05/13 00:01:05;;;;;;;9.98;3.30;;;23.40;45.10;;;;;;1045189;28;20033;-79
2021/05/13 00:01:37;;;;;;;14.35;4.18;;;23.30;45.10;;;;;;1045090;28;20100;-80
2021/05/13 00:02:08;;;;;;;9.32;3.67;;;23.30;45.20;;;;;;1040937;28;20330;-79
2021/05/13 00:02:40;;;;;;;11.02;3.70;;;23.30;45.10;;;;;;1036799;28;20029;-79
2021/05/13 00:03:12;;;;;;;8.32;3.33;;;23.30;45.00;;;;;;1037433;28;20030;-79
2021/05/13 00:03:43;;;;;;;7.35;3.30;;;23.30;45.10;;;;;;1037547;28;20034;-79
2021/05/13 00:04:15;;;;;;;9.88;3.70;;;23.30;45.50;;;;;;1036893;28;20076;-79
2021/05/13 00:04:46;;;;;;;13.90;3.50;;;23.30;45.70;;;;;;1037187;28;20499;-80
2021/05/13 00:05:18;;;;;;;10.73;3.92;;;23.30;45.40;;;;;;1041475;28;20029;-79
2021/05/13 00:05:49;;;;;;;10.63;3.83;;;23.30;45.40;;;;;;1043043;28;20017;-79
2021/05/13 00:06:21;;;;;;;11.52;4.07;;;23.30;45.40;;;;;;1040914;28;20030;-80
2021/05/13 00:06:53;;;;;;;12.68;3.90;;;23.40;45.20;;;;;;1041077;28;20037;-79
2021/05/13 00:07:24;;;;;;;13.73;4.20;;;23.30;45.00;;;;;;1036863;28;20022;-78
2021/05/13 00:07:55;;;;;;;10.63;3.88;;;23.30;45.10;;;;;;1036464;28;20026;-78
2021/05/13 00:08:27;;;;;;;13.02;3.60;;;23.30;45.40;;;;;;1032810;28;20089;-79
2021/05/13 00:08:59;;;;;;;9.63;3.63;;;23.30;45.20;;;;;;1037171;28;20432;-78
2021/05/13 00:09:32;;;;;;;10.60;3.78;;;23.30;45.20;;;;;;1040808;28;20031;-79
2021/05/13 00:10:10;;;;;;;11.45;3.65;;;23.30;45.40;;;;;;1036892;28;20092;-79
2021/05/13 00:10:42;;;;;;;9.13;3.70;;;23.30;45.90;;;;;;1038510;28;20253;-80
2021/05/13 00:11:13;;;;;;;9.13;3.70;;;23.30;45.80;;;;;;1036843;28;20484;-79
2021/05/13 00:11:47;;;;;;;9.27;3.67;;;23.30;45.60;;;;;;1038403;28;20437;-78
2021/05/13 00:13:09;;;;;;;11.75;3.83;;;23.30;45.60;;;;;;1044493;28;20032;-80
2021/05/13 00:13:40;;;;;;;9.73;3.95;;;23.20;45.50;;;;;;1045217;28;20024;-82
2021/05/13 00:14:15;;;;;;;10.95;3.88;;;23.30;45.60;;;;;;1040924;28;20021;-79
2021/05/13 00:14:47;;;;;;;11.98;3.83;;;23.30;45.50;;;;;;1040798;28;20028;-77
2021/05/13 00:15:28;;;;;;;12.48;3.92;;;23.30;45.40;;;;;;1041105;28;20544;-79
2021/05/13 00:16:01;;;;;;;9.10;3.47;;;23.30;45.40;;;;;;1039295;28;20040;-78
2021/05/13 00:16:34;;;;;;;10.05;3.72;;;23.30;45.50;;;;;;1040892;28;20057;-79
2021/05/13 00:17:06;;;;;;;9.18;3.83;;;23.20;45.60;;;;;;1041009;28;20018;-79
2021/05/13 00:17:37;;;;;;;10.95;3.80;;;23.20;45.60;;;;;;1040958;28;20044;-78
2021/05/13 00:18:09;;;;;;;9.18;3.38;;;23.20;45.70;;;;;;1041026;28;20021;-79
2021/05/13 00:18:41;;;;;;;10.77;3.80;;;23.10;45.90;;;;;;1040945;28;20465;-79
2021/05/13 00:19:14;;;;;;;13.23;4.20;;;23.10;46.10;;;;;;1041088;28;20444;-79
2021/05/13 00:19:46;;;;;;;11.77;3.90;;;23.20;46.40;;;;;;1041764;28;20116;-79
2021/05/13 00:20:24;;;;;;;9.75;3.70;;;23.20;46.40;;;;;;1040961;28;20021;-80
2021/05/13 00:20:56;;;;;;;9.18;3.83;;;23.20;46.40;;;;;;1040900;28;20040;-79
2021/05/13 00:21:28;;;;;;;13.60;4.13;;;23.30;46.10;;;;;;1040960;28;20404;-79
2021/05/13 00:21:59;;;;;;;8.90;3.70;;;23.30;45.80;;;;;;1040988;28;20025;-77
2021/05/13 00:22:30;;;;;;;10.55;3.72;;;23.20;45.50;;;;;;1040828;28;20513;-79
2021/05/13 00:23:02;;;;;;;10.30;4.15;;;23.20;45.50;;;;;;1036814;28;20484;-80
2021/05/13 00:23:34;;;;;;;8.50;3.70;;;23.20;45.60;;;;;;1037016;28;20022;-78
2021/05/13 00:24:07;;;;;;;9.00;3.70;;;23.10;45.70;;;;;;1037498;28;20150;-79
2021/05/13 00:24:38;;;;;;;10.63;3.50;;;23.10;45.80;;;;;;1041026;28;20021;-78
2021/05/13 00:25:10;;;;;;;9.50;3.80;;;23.10;45.90;;;;;;1041170;28;20468;-79
2021/05/13 00:25:42;;;;;;;10.23;3.80;;;23.10;45.90;;;;;;1040795;28;20441;-77
2021/05/13 00:26:14;;;;;;;9.52;3.47;;;23.00;45.80;;;;;;1040993;28;20009;-79
2021/05/13 00:26:47;;;;;;;10.55;3.72;;;23.00;46.00;;;;;;1040830;28;20089;-80
2021/05/13 00:27:19;;;;;;;11.63;3.60;;;23.00;46.10;;;;;;1040990;28;20085;-79
2021/05/13 00:27:51;;;;;;;9.98;3.70;;;23.00;45.80;;;;;;1036786;28;20025;-79
2021/05/13 00:28:22;;;;;;;11.25;4.32;;;23.00;45.90;;;;;;1036834;28;20018;-79
2021/05/13 00:28:53;;;;;;;10.55;3.50;;;23.00;46.10;;;;;;1036843;28;20010;-80
2021/05/13 00:29:27;;;;;;;10.85;3.70;;;23.00;46.10;;;;;;1037302;28;20010;-81
2021/05/13 00:29:58;;;;;;;9.57;3.92;;;22.90;46.20;;;;;;1036526;28;20014;-81
2021/05/13 00:30:29;;;;;;;10.95;3.60;;;23.00;45.90;;;;;;1032547;28;20461;-79
2021/05/13 00:31:01;;;;;;;12.70;4.00;;;22.90;45.70;;;;;;1029417;28;20011;-78
2021/05/13 00:31:33;;;;;;;10.98;4.10;;;22.90;45.90;;;;;;1036586;28;20425;-79
2021/05/13 00:32:04;;;;;;;11.25;4.07;;;22.90;46.30;;;;;;1033268;28;20026;-79
2021/05/13 00:32:37;;;;;;;10.50;3.80;;;22.80;46.10;;;;;;1032640;28;20010;-80
2021/05/13 00:33:09;;;;;;;7.53;3.53;;;22.80;46.20;;;;;;1032768;28;20038;-80
2021/05/13 00:33:40;;;;;;;10.63;3.83;;;22.80;46.10;;;;;;1033616;28;20354;-80
2021/05/13 00:34:12;;;;;;;12.77;3.67;;;22.80;46.20;;;;;;1037579;28;20065;-80
2021/05/13 00:34:43;;;;;;;9.65;3.83;;;22.80;46.20;;;;;;1037195;28;20022;-79
2021/05/13 00:35:17;;;;;;;10.23;4.03;;;22.80;46.60;;;;;;1040957;28;20005;-79
2021/05/13 00:35:48;;;;;;;8.30;3.55;;;22.70;46.40;;;;;;1036707;28;20373;-80
2021/05/13 00:36:20;;;;;;;12.43;3.53;;;22.80;46.60;;;;;;1037642;28;20025;-79
2021/05/13 00:36:51;;;;;;;10.00;3.70;;;22.80;46.50;;;;;;1036730;28;20026;-80
2021/05/13 00:37:22;;;;;;;10.23;3.70;;;22.80;46.60;;;;;;1037073;28;20505;-79
2021/05/13 00:37:54;;;;;;;11.73;3.70;;;22.70;46.60;;;;;;1040894;28;20009;-79
2021/05/13 00:38:25;;;;;;;9.02;3.90;;;22.80;46.80;;;;;;1040784;28;20006;-79
2021/05/13 00:38:57;;;;;;;11.88;3.95;;;22.70;46.90;;;;;;1036792;28;20072;-77
2021/05/13 00:39:29;;;;;;;10.15;4.10;;;22.80;47.10;;;;;;1033242;28;20010;-78
2021/05/13 00:40:00;;;;;;;10.10;3.92;;;22.70;46.80;;;;;;1036958;28;20338;-79
2021/05/13 00:40:33;;;;;;;9.70;3.92;;;22.70;46.70;;;;;;1037327;28;20093;-81
2021/05/13 00:41:07;;;;;;;12.23;3.80;;;22.80;46.80;;;;;;1037503;28;20018;-81
2021/05/13 00:41:38;;;;;;;9.52;3.70;;;22.80;46.90;;;;;;1040833;28;20101;-81
2021/05/13 00:42:10;;;;;;;11.07;3.95;;;22.80;47.20;;;;;;1037174;28;20026;-81
2021/05/13 00:42:41;;;;;;;13.32;4.07;;;22.80;47.50;;;;;;1036761;28;20006;-79
2021/05/13 00:43:13;;;;;;;10.90;3.97;;;22.80;47.10;;;;;;1039093;28;20432;-79
2021/05/13 00:43:44;;;;;;;9.23;3.65;;;22.80;47.00;;;;;;1035299;28;20029;-79
2021/05/13 00:44:16;;;;;;;10.25;4.00;;;22.80;47.10;;;;;;1036283;28;20080;-80
2021/05/13 00:44:47;;;;;;;9.77;3.83;;;22.80;47.00;;;;;;1034306;28;20021;-81
2021/05/13 00:45:20;;;;;;;9.55;3.70;;;22.80;46.70;;;;;;1037151;28;20037;-80
2021/05/13 00:45:51;;;;;;;10.73;4.00;;;22.70;46.60;;;;;;1037200;28;20030;-80
2021/05/13 00:46:23;;;;;;;11.00;3.75;;;22.80;46.90;;;;;;1028681;28;20469;-79
2021/05/13 00:46:55;;;;;;;11.88;3.85;;;22.80;46.80;;;;;;1030307;28;20042;-80
2021/05/13 00:47:28;;;;;;;12.02;3.78;;;22.80;46.90;;;;;;1032462;28;20018;-78
2021/05/13 00:48:04;;;;;;;9.82;3.97;;;22.80;46.80;;;;;;1035925;28;20512;-77
2021/05/13 00:48:39;;;;;;;10.43;3.88;;;22.80;46.80;;;;;;1040209;28;20401;-76
2021/05/13 00:49:14;;;;;;;9.23;3.70;;;22.70;46.80;;;;;;1040953;28;20022;-76
2021/05/13 00:49:45;;;;;;;12.45;3.83;;;22.70;46.80;;;;;;1036628;28;20049;-75
2021/05/13 00:50:17;;;;;;;11.77;3.90;;;22.70;47.00;;;;;;1037996;28;20096;-76
2021/05/13 00:50:48;;;;;;;12.10;3.80;;;22.70;47.40;;;;;;1037379;28;20092;-76
2021/05/13 00:51:19;;;;;;;11.35;4.10;;;22.70;47.40;;;;;;1040135;28;20018;-77
2021/05/13 00:51:51;;;;;;;13.10;4.50;;;22.80;47.20;;;;;;1039590;28;20017;-78
2021/05/13 00:52:25;;;;;;;10.57;4.10;;;22.80;47.10;;;;;;1040652;28;20026;-77
2021/05/13 00:52:56;;;;;;;11.60;4.00;;;22.80;47.00;;;;;;1040842;28;20342;-77
2021/05/13 00:53:28;;;;;;;10.73;4.00;;;22.80;47.10;;;;;;1040933;28;20445;-78
2021/05/13 00:53:59;;;;;;;13.55;4.30;;;22.70;47.50;;;;;;1037480;28;20092;-78
2021/05/13 00:54:31;;;;;;;11.25;3.72;;;22.80;47.00;;;;;;1040893;28;20446;-79
2021/05/13 00:55:03;;;;;;;13.65;4.05;;;22.80;47.00;;;;;;1040925;28;20037;-77
2021/05/13 00:55:35;;;;;;;11.50;3.97;;;22.80;47.00;;;;;;1037272;28;20121;-78
2021/05/13 00:56:07;;;;;;;10.80;3.83;;;22.80;47.00;;;;;;1036576;28;20022;-81
2021/05/13 00:56:38;;;;;;;11.93;4.10;;;22.80;46.50;;;;;;1038519;28;20042;-78
2021/05/13 00:57:15;;;;;;;10.90;3.90;;;22.80;46.50;;;;;;1039689;28;20080;-80
2021/05/13 00:57:50;;;;;;;11.52;3.90;;;22.80;46.60;;;;;;1038646;28;20121;-79
2021/05/13 00:58:25;;;;;;;10.43;3.90;;;22.80;47.00;;;;;;1038307;28;20013;-78
2021/05/13 00:59:09;;;;;;;10.27;3.67;;;22.80;46.90;;;;;;1037508;28;20026;-79
2021/05/13 00:59:48;;;;;;;12.05;4.13;;;22.80;47.20;;;;;;1039842;28;20029;-77
2021/05/13 01:01:13;;;;;;;13.52;4.32;;;22.80;46.70;;;;;;1043595;28;20048;-78
2021/05/13 01:02:16;;;;;;;11.73;4.72;;;22.70;46.60;;;;;;1041701;28;20348;-78
2021/05/13 01:02:48;;;;;;;10.70;3.88;;;22.70;46.60;;;;;;1040656;28;20479;-79
2021/05/13 01:03:19;;;;;;;12.80;4.05;;;22.70;46.70;;;;;;1039081;28;20018;-79
2021/05/13 01:03:51;;;;;;;12.38;4.18;;;22.60;47.00;;;;;;1036028;28;20089;-79
2021/05/13 01:04:23;;;;;;;10.65;3.85;;;22.70;47.10;;;;;;1039350;28;20040;-78
2021/05/13 01:04:54;;;;;;;11.70;4.10;;;22.70;47.20;;;;;;1035627;28;20477;-78
2021/05/13 01:05:26;;;;;;;11.32;4.10;;;22.70;47.10;;;;;;1035255;28;20032;-78
2021/05/13 01:05:58;;;;;;;11.15;4.13;;;22.70;47.10;;;;;;1032076;28;20457;-79
2021/05/13 01:06:29;;;;;;;10.80;4.03;;;22.80;46.40;;;;;;1031634;28;20022;-79
2021/05/13 01:07:01;;;;;;;9.98;3.88;;;22.80;46.50;;;;;;1029748;28;20027;-79
2021/05/13 01:07:33;;;;;;;12.02;4.30;;;22.90;46.40;;;;;;1034301;28;20343;-79
2021/05/13 01:08:05;;;;;;;12.15;4.30;;;22.90;46.40;;;;;;1037346;28;20469;-78
2021/05/13 01:08:37;;;;;;;8.43;3.63;;;22.90;46.10;;;;;;1039602;28;20333;-79
2021/05/13 01:09:10;;;;;;;9.75;4.00;;;22.90;46.30;;;;;;1040295;28;20386;-79
2021/05/13 01:09:42;;;;;;;11.65;3.92;;;22.80;46.20;;;;;;1040438;28;20030;-78
2021/05/13 01:10:14;;;;;;;11.50;4.07;;;22.90;46.60;;;;;;1040726;28;20018;-78
2021/05/13 01:10:45;;;;;;;10.27;3.95;;;22.90;46.70;;;;;;1039955;28;20490;-78
2021/05/13 01:11:17;;;;;;;12.50;3.80;;;22.90;46.90;;;;;;1033732;28;20058;-78
2021/05/13 01:11:54;;;;;;;12.18;4.20;;;22.90;46.70;;;;;;1034149;28;20501;-79
2021/05/13 01:12:26;;;;;;;10.70;4.05;;;22.90;46.20;;;;;;1033809;28;20064;-78
2021/05/13 01:13:03;;;;;;;10.52;4.00;;;22.90;46.00;;;;;;1036584;28;20278;-78
2021/05/13 01:13:36;;;;;;;11.70;4.32;;;22.90;47.10;;;;;;1034046;28;20474;-78
2021/05/13 01:14:27;;;;;;;13.70;4.13;;;22.90;46.50;;;;;;1036648;28;20014;-79
2021/05/13 01:14:59;;;;;;;10.23;3.97;;;22.90;46.40;;;;;;1037450;28;20467;-79
2021/05/13 01:15:38;;;;;;;12.55;4.20;;;22.90;46.40;;;;;;1039923;28;20025;-79
2021/05/13 01:16:23;;;;;;;14.00;4.40;;;23.00;46.50;;;;;;1040304;28;20021;-79
2021/05/13 01:17:20;;;;;;;14.10;4.30;;;23.00;46.20;;;;;;1036194;28;20429;-79
2021/05/13 01:18:04;;;;;;;9.85;3.85;;;23.10;46.30;;;;;;1034736;28;20113;-79
2021/05/13 01:18:36;;;;;;;12.13;4.03;;;23.00;46.00;;;;;;1035224;28;20172;-78
2021/05/13 01:19:08;;;;;;;12.25;4.20;;;23.00;45.80;;;;;;1039276;28;20030;-78
2021/05/13 01:19:46;;;;;;;13.18;4.25;;;23.00;46.10;;;;;;1040184;28;20371;-78
2021/05/13 01:20:18;;;;;;;9.68;4.00;;;23.00;45.40;;;;;;1035192;28;20026;-79
2021/05/13 01:20:50;;;;;;;11.52;4.15;;;23.00;45.30;;;;;;1035392;28;20050;-79
2021/05/13 01:21:22;;;;;;;11.10;4.10;;;23.00;45.40;;;;;;1035925;28;20029;-79
2021/05/13 01:21:54;;;;;;;11.95;4.30;;;23.00;45.50;;;;;;1032569;28;20060;-79
2021/05/13 01:22:25;;;;;;;12.55;4.28;;;23.00;46.50;;;;;;1030228;28;20023;-79
2021/05/13 01:22:59;;;;;;;10.68;3.90;;;23.00;45.60;;;;;;1028277;28;20038;-79
2021/05/13 01:23:30;;;;;;;12.77;4.32;;;23.00;45.70;;;;;;1028551;28;20041;-79
2021/05/13 01:24:01;;;;;;;12.80;3.92;;;23.00;45.60;;;;;;1033714;28;20054;-79
2021/05/13 01:24:33;;;;;;;11.60;4.38;;;23.00;45.60;;;;;;1038154;28;20026;-78
2021/05/13 01:25:05;;;;;;;11.80;4.10;;;22.80;45.10;;;;;;1038458;28;20022;-79
2021/05/13 01:25:51;;;;;;;11.07;4.03;;;22.90;45.30;;;;;;1042581;28;20025;-79
2021/05/13 01:26:22;;;;;;;14.85;4.00;;;22.80;45.20;;;;;;1040010;28;20456;-79
2021/05/13 01:26:54;;;;;;;13.73;4.50;;;22.80;45.70;;;;;;1039629;28;20495;-80
2021/05/13 01:27:25;;;;;;;13.20;4.40;;;22.90;45.60;;;;;;1036457;28;20033;-79
2021/05/13 01:27:59;;;;;;;13.73;4.65;;;22.90;45.30;;;;;;1030672;28;20034;-79
2021/05/13 01:28:30;;;;;;;12.73;4.22;;;22.90;45.30;;;;;;1032421;28;20095;-79
2021/05/13 01:29:03;;;;;;;11.45;4.30;;;23.00;45.30;;;;;;1035463;28;20026;-79
2021/05/13 01:29:35;;;;;;;13.85;4.10;;;22.90;45.50;;;;;;1034496;28;22143;-80
2021/05/13 01:30:07;;;;;;;12.27;4.15;;;22.90;45.50;;;;;;1040409;28;20083;-79
2021/05/13 01:30:39;;;;;;;11.65;4.20;;;22.80;45.40;;;;;;1035408;28;20060;-79
2021/05/13 01:31:10;;;;;;;13.18;4.40;;;22.80;45.40;;;;;;1040694;28;20030;-79
2021/05/13 01:31:45;;;;;;;13.00;4.45;;;22.70;45.10;;;;;;1040450;28;20036;-78
2021/05/13 01:32:18;;;;;;;11.55;4.18;;;22.60;45.30;;;;;;1034558;28;20481;-79
2021/05/13 01:32:50;;;;;;;15.00;4.45;;;22.60;45.60;;;;;;1034362;28;20026;-79
2021/05/13 01:33:23;;;;;;;11.85;4.40;;;22.50;45.80;;;;;;1035517;28;20113;-79
2021/05/13 01:33:54;;;;;;;15.00;4.90;;;22.50;46.10;;;;;;1040451;28;20032;-79
2021/05/13 01:34:26;;;;;;;12.48;3.83;;;22.40;46.10;;;;;;1034633;28;20452;-79
2021/05/13 01:34:57;;;;;;;13.32;4.65;;;22.40;46.30;;;;;;1030422;28;20081;-78
2021/05/13 01:35:29;;;;;;;12.10;4.20;;;22.30;46.40;;;;;;1032507;28;20019;-79
2021/05/13 01:36:00;;;;;;;12.90;4.43;;;22.20;46.50;;;;;;1036793;28;20117;-79
2021/05/13 01:36:33;;;;;;;11.45;4.30;;;22.20;46.70;;;;;;1037273;28;20018;-78
2021/05/13 01:37:04;;;;;;;12.52;4.30;;;22.20;46.90;;;;;;1038970;28;20033;-79
2021/05/13 01:37:36;;;;;;;14.98;4.57;;;22.10;47.00;;;;;;1041534;28;20457;-79
2021/05/13 01:38:13;;;;;;;11.40;4.30;;;22.20;47.00;;;;;;1036408;28;20025;-79
2021/05/13 01:38:44;;;;;;;15.32;4.47;;;22.10;46.90;;;;;;1032400;28;20027;-81
2021/05/13 01:39:16;;;;;;;12.85;4.13;;;22.00;47.50;;;;;;1034168;28;20037;-79
2021/05/13 01:39:50;;;;;;;12.15;4.10;;;22.00;46.90;;;;;;1032810;28;20030;-77
2021/05/13 01:40:21;;;;;;;13.45;4.75;;;21.90;46.90;;;;;;1029259;28;20437;-77
2021/05/13 01:40:55;;;;;;;12.10;4.20;;;21.80;47.20;;;;;;1035892;28;20033;-77
2021/05/13 01:41:27;;;;;;;12.45;4.13;;;21.80;47.40;;;;;;1033298;28;20042;-79
2021/05/13 01:41:58;;;;;;;12.35;4.50;;;21.70;47.50;;;;;;1032407;28;20057;-79
2021/05/13 01:42:29;;;;;;;13.88;4.70;;;21.80;47.70;;;;;;1035637;28;20101;-79
2021/05/13 01:43:01;;;;;;;12.93;4.07;;;21.70;47.60;;;;;;1032564;28;20014;-79
2021/05/13 01:43:33;;;;;;;14.65;4.45;;;21.70;47.90;;;;;;1032099;28;20066;-78
2021/05/13 01:44:05;;;;;;;12.48;4.40;;;21.80;47.70;;;;;;1035778;28;20034;-79
2021/05/13 01:44:36;;;;;;;12.80;4.20;;;21.70;47.60;;;;;;1037131;28;20113;-79
2021/05/13 01:45:08;;;;;;;12.93;4.63;;;21.70;47.60;;;;;;1039668;28;20159;-79
2021/05/13 01:45:41;;;;;;;15.30;4.70;;;21.70;47.70;;;;;;1035883;28;20026;-79
2021/05/13 01:46:13;;;;;;;12.15;4.55;;;21.60;47.70;;;;;;1034397;28;20108;-79
2021/05/13 01:46:44;;;;;;;14.15;4.57;;;21.50;47.90;;;;;;1031183;28;20077;-78
2021/05/13 01:47:16;;;;;;;13.43;4.72;;;21.50;48.10;;;;;;1033141;28;20022;-80
2021/05/13 01:47:47;;;;;;;11.00;4.25;;;21.40;48.80;;;;;;1039389;28;20029;-79
2021/05/13 01:48:19;;;;;;;12.98;4.78;;;21.40;48.90;;;;;;1036990;28;20026;-79
2021/05/13 01:48:50;;;;;;;10.05;4.13;;;21.40;48.40;;;;;;1036449;28;20029;-79
2021/05/13 01:49:23;;;;;;;14.38;4.32;;;21.30;48.50;;;;;;1036973;28;20026;-78
2021/05/13 01:49:54;;;;;;;10.75;4.30;;;21.20;48.70;;;;;;1038933;28;20114;-79
2021/05/13 01:50:26;;;;;;;10.82;4.00;;;21.10;48.90;;;;;;1039956;28;20034;-78
2021/05/13 01:50:58;;;;;;;9.82;4.35;;;21.10;49.10;;;;;;1040471;28;20116;-79
2021/05/13 01:51:29;;;;;;;12.23;4.15;;;21.10;49.50;;;;;;1034618;28;20029;-79
2021/05/13 01:52:01;;;;;;;12.38;4.53;;;21.00;49.50;;;;;;1031337;28;20027;-79
2021/05/13 01:52:32;;;;;;;11.43;4.50;;;20.90;49.40;;;;;;1035509;28;20096;-79
2021/05/13 01:53:06;;;;;;;13.32;4.30;;;20.90;49.50;;;;;;1035963;28;20112;-78
2021/05/13 01:53:42;;;;;;;13.48;4.50;;;20.80;49.50;;;;;;1039132;28;20104;-80
2021/05/13 01:54:15;;;;;;;14.23;5.00;;;20.80;49.60;;;;;;1040480;28;20360;-78
2021/05/13 01:54:46;;;;;;;12.30;4.30;;;20.70;49.50;;;;;;1037161;28;20033;-79
2021/05/13 01:55:17;;;;;;;10.35;4.15;;;20.70;49.80;;;;;;1038254;28;20018;-79
2021/05/13 01:55:49;;;;;;;15.57;4.30;;;20.60;50.00;;;;;;1039700;28;20029;-78
2021/05/13 01:56:20;;;;;;;11.63;4.50;;;20.60;50.10;;;;;;1040584;28;20025;-78
2021/05/13 01:56:52;;;;;;;12.63;4.40;;;20.50;50.40;;;;;;1039643;28;20032;-79
2021/05/13 01:57:23;;;;;;;12.30;4.15;;;20.40;50.40;;;;;;1037915;28;20021;-79
2021/05/13 01:57:55;;;;;;;12.27;4.45;;;20.30;50.50;;;;;;1039386;28;20079;-79
2021/05/13 01:58:26;;;;;;;11.93;4.18;;;20.30;50.70;;;;;;1036101;28;20172;-79
2021/05/13 01:58:58;;;;;;;13.05;4.10;;;20.30;51.00;;;;;;1035373;28;20022;-79
2021/05/13 01:59:29;;;;;;;12.90;5.00;;;20.20;51.00;;;;;;1035682;28;20033;-79
2021/05/13 02:00:00;;;;;;;13.13;4.53;;;20.20;51.00;;;;;;1036345;28;20026;-77
2021/05/13 02:00:36;;;;;;;14.52;4.60;;;20.10;50.90;;;;;;1035200;28;20022;-78
2021/05/13 02:01:13;;;;;;;14.52;4.65;;;20.10;51.30;;;;;;1036290;28;20109;-78
2021/05/13 02:01:45;;;;;;;12.50;4.28;;;20.00;51.50;;;;;;1031679;28;20129;-79
2021/05/13 02:02:16;;;;;;;11.85;4.47;;;19.90;51.80;;;;;;1029379;28;20099;-77
2021/05/13 02:02:49;;;;;;;14.60;5.03;;;19.90;51.90;;;;;;1028681;28;20030;-78
2021/05/13 02:03:21;;;;;;;11.02;4.35;;;19.80;52.20;;;;;;1033624;28;20028;-81
2021/05/13 02:03:52;;;;;;;11.90;4.68;;;19.80;52.20;;;;;;1033883;28;20022;-79
2021/05/13 02:04:24;;;;;;;14.77;4.78;;;19.80;52.10;;;;;;1035384;28;20037;-78
2021/05/13 02:04:55;;;;;;;11.35;4.07;;;19.70;52.20;;;;;;1036403;28;20022;-79
2021/05/13 02:05:27;;;;;;;13.82;4.30;;;19.70;52.20;;;;;;1033950;28;20030;-79
2021/05/13 02:05:58;;;;;;;13.27;4.28;;;19.60;52.40;;;;;;1033677;28;20424;-79
2021/05/13 02:06:30;;;;;;;12.77;4.10;;;19.50;52.40;;;;;;1039752;28;20021;-79
2021/05/13 02:07:01;;;;;;;11.30;4.20;;;19.50;52.50;;;;;;1040220;28;20021;-78
2021/05/13 02:07:32;;;;;;;13.50;4.60;;;19.40;52.70;;;;;;1040555;28;20016;-78
2021/05/13 02:08:04;;;;;;;14.73;4.30;;;19.40;53.10;;;;;;1039835;28;20021;-80
2021/05/13 02:08:36;;;;;;;17.13;4.50;;;19.30;53.10;;;;;;1035928;28;20117;-79
2021/05/13 02:09:08;;;;;;;11.80;4.32;;;19.30;53.50;;;;;;1036279;28;20030;-79
2021/05/13 02:09:39;;;;;;;13.20;4.38;;;19.20;53.60;;;;;;1036430;28;20027;-79
2021/05/13 02:10:12;;;;;;;12.07;4.43;;;19.20;53.70;;;;;;1032540;28;20018;-81
2021/05/13 02:10:43;;;;;;;15.82;5.05;;;19.20;54.00;;;;;;1032321;28;20069;-78
2021/05/13 02:11:14;;;;;;;13.40;4.25;;;19.20;54.20;;;;;;1028963;28;20109;-81
2021/05/13 02:11:46;;;;;;;13.45;4.75;;;19.10;54.20;;;;;;1028299;28;20022;-75
2021/05/13 02:12:17;;;;;;;13.32;4.80;;;19.10;54.40;;;;;;1029551;28;20023;-75
2021/05/13 02:12:49;;;;;;;16.15;5.15;;;19.10;54.30;;;;;;1036797;28;20073;-79
2021/05/13 02:13:20;;;;;;;13.32;4.60;;;18.90;54.40;;;;;;1040708;28;20401;-78
2021/05/13 02:13:52;;;;;;;12.85;4.80;;;18.90;54.60;;;;;;1036433;28;20535;-80
2021/05/13 02:14:23;;;;;;;13.95;4.57;;;18.90;54.70;;;;;;1036622;28;20018;-79
2021/05/13 02:14:55;;;;;;;15.30;4.40;;;18.80;55.10;;;;;;1040592;28;20017;-79
2021/05/13 02:15:26;;;;;;;14.93;5.05;;;18.80;55.30;;;;;;1037064;28;20034;-79
2021/05/13 02:15:58;;;;;;;15.40;5.10;;;18.60;55.40;;;;;;1037357;28;20354;-80
2021/05/13 02:16:29;;;;;;;14.13;5.05;;;18.60;55.80;;;;;;1037212;28;20479;-79
2021/05/13 02:17:01;;;;;;;14.23;5.28;;;18.50;55.90;;;;;;1036513;28;20025;-82
2021/05/13 02:17:32;;;;;;;12.75;4.63;;;18.40;56.20;;;;;;1036467;28;20058;-79
2021/05/13 02:18:04;;;;;;;12.13;4.45;;;18.40;56.20;;;;;;1036367;28;20117;-79
2021/05/13 02:18:35;;;;;;;18.50;5.18;;;18.30;56.40;;;;;;1039250;28;20029;-77
2021/05/13 02:19:07;;;;;;;14.10;4.63;;;18.30;56.60;;;;;;1040145;28;20056;-79
2021/05/13 02:19:38;;;;;;;14.10;4.70;;;18.30;56.90;;;;;;1037661;28;20029;-80
2021/05/13 02:20:16;;;;;;;12.13;4.10;;;18.20;56.80;;;;;;1041319;28;20387;-79
2021/05/13 02:20:48;;;;;;;15.18;4.50;;;18.20;57.00;;;;;;1034859;28;20041;-79
2021/05/13 02:21:20;;;;;;;14.40;4.70;;;18.10;57.10;;;;;;1034749;28;20068;-80
2021/05/13 02:21:51;;;;;;;15.02;5.15;;;18.20;57.30;;;;;;1029724;28;20078;-78
2021/05/13 02:22:22;;;;;;;15.50;5.00;;;18.20;57.20;;;;;;1035952;28;20025;-78
2021/05/13 02:22:55;;;;;;;16.60;4.85;;;18.20;57.30;;;;;;1040337;28;20025;-79
2021/05/13 02:23:26;;;;;;;13.25;4.53;;;18.20;57.40;;;;;;1040451;28;20026;-79
2021/05/13 02:23:58;;;;;;;15.32;5.07;;;18.10;57.70;;;;;;1039597;28;20063;-78
2021/05/13 02:24:29;;;;;;;14.52;5.00;;;18.10;57.80;;;;;;1035500;28;20022;-78
2021/05/13 02:25:00;;;;;;;13.38;4.68;;;18.00;57.80;;;;;;1036284;28;20057;-78
2021/05/13 02:25:32;;;;;;;16.50;5.05;;;18.10;57.60;;;;;;1036529;28;20111;-79
2021/05/13 02:26:04;;;;;;;14.23;4.60;;;18.00;57.80;;;;;;1036775;28;20469;-79
2021/05/13 02:26:35;;;;;;;14.48;4.75;;;18.00;57.80;;;;;;1040461;28;20504;-78
2021/05/13 02:27:07;;;;;;;19.48;5.07;;;17.90;58.00;;;;;;1040418;28;20101;-79
2021/05/13 02:27:39;;;;;;;14.20;5.00;;;17.90;58.10;;;;;;1036780;28;20021;-78
2021/05/13 02:28:10;;;;;;;16.08;4.50;;;17.90;57.90;;;;;;1040546;28;20028;-77
2021/05/13 02:28:42;;;;;;;12.63;4.60;;;18.00;58.10;;;;;;1040384;28;20033;-78
2021/05/13 02:29:13;;;;;;;12.15;4.70;;;17.90;58.40;;;;;;1039082;28;20158;-78
2021/05/13 02:29:44;;;;;;;13.80;5.20;;;17.80;58.50;;;;;;1040420;28;20025;-78
2021/05/13 02:30:16;;;;;;;15.88;4.50;;;17.80;58.70;;;;;;1043090;28;20022;-79
2021/05/13 02:30:47;;;;;;;11.55;4.47;;;17.70;58.90;;;;;;1044655;28;20021;-77
2021/05/13 02:31:19;;;;;;;12.27;4.45;;;17.70;59.00;;;;;;1044632;28;20024;-78
2021/05/13 02:31:50;;;;;;;17.98;4.93;;;17.70;59.10;;;;;;1037099;28;20025;-78
2021/05/13 02:32:21;;;;;;;15.40;4.65;;;17.70;59.00;;;;;;1036320;28;20417;-78
2021/05/13 02:32:54;;;;;;;16.98;4.53;;;17.60;59.00;;;;;;1036485;28;20022;-79
2021/05/13 02:33:25;;;;;;;14.73;4.93;;;17.60;59.10;;;;;;1032887;28;20023;-79
2021/05/13 02:33:57;;;;;;;12.70;4.50;;;17.60;59.30;;;;;;1035421;28;20017;-78
2021/05/13 02:34:28;;;;;;;12.15;4.70;;;17.60;59.40;;;;;;1032291;28;20049;-79
2021/05/13 02:34:59;;;;;;;16.98;5.00;;;17.50;59.60;;;;;;1032795;28;20037;-79
2021/05/13 02:35:31;;;;;;;14.85;4.82;;;17.50;59.50;;;;;;1033188;28;20457;-79
2021/05/13 02:36:03;;;;;;;17.08;5.15;;;17.50;59.50;;;;;;1032166;28;20034;-78
2021/05/13 02:36:36;;;;;;;18.45;4.90;;;17.50;59.50;;;;;;1033270;28;20030;-78
2021/05/13 02:37:08;;;;;;;17.27;5.07;;;17.50;60.00;;;;;;1041354;28;20368;-81
2021/05/13 02:37:40;;;;;;;15.48;5.05;;;17.40;60.00;;;;;;1043682;28;20044;-78
2021/05/13 02:38:11;;;;;;;18.08;5.22;;;17.30;60.10;;;;;;1041663;28;20059;-78
2021/05/13 02:38:43;;;;;;;15.40;4.90;;;17.30;60.50;;;;;;1039590;28;20676;-80
2021/05/13 02:39:14;;;;;;;14.20;4.57;;;17.20;60.50;;;;;;1040418;28;20104;-79
2021/05/13 02:39:49;;;;;;;14.13;4.80;;;17.20;60.40;;;;;;1036372;28;20471;-79
2021/05/13 02:40:21;;;;;;;15.35;4.55;;;17.30;60.50;;;;;;1037359;28;20057;-78
2021/05/13 02:40:52;;;;;;;15.18;4.78;;;17.20;60.40;;;;;;1040262;28;20056;-78
2021/05/13 02:41:24;;;;;;;15.20;5.22;;;17.20;60.60;;;;;;1040550;28;20030;-78
2021/05/13 02:41:55;;;;;;;13.60;4.72;;;17.30;60.70;;;;;;1036805;28;20034;-78
2021/05/13 02:42:27;;;;;;;16.70;4.70;;;17.20;60.80;;;;;;1040548;28;20025;-77
2021/05/13 02:42:59;;;;;;;14.43;4.70;;;17.20;60.80;;;;;;1040645;28;20021;-78
2021/05/13 02:43:30;;;;;;;16.90;5.20;;;17.10;61.00;;;;;;1036642;28;20038;-77
2021/05/13 02:44:01;;;;;;;14.70;4.57;;;17.10;61.10;;;;;;1036209;28;20104;-79
2021/05/13 02:44:33;;;;;;;15.45;5.00;;;17.10;61.10;;;;;;1032890;28;20453;-80
2021/05/13 02:45:06;;;;;;;14.90;4.95;;;17.10;61.00;;;;;;1036702;28;20049;-81
2021/05/13 02:45:37;;;;;;;17.50;4.72;;;17.10;61.50;;;;;;1036851;28;20022;-80
2021/05/13 02:46:09;;;;;;;18.05;4.90;;;17.00;61.20;;;;;;1034457;28;20176;-79
2021/05/13 02:46:40;;;;;;;14.35;5.00;;;17.00;61.40;;;;;;1032732;28;20442;-79
2021/05/13 02:47:11;;;;;;;15.68;4.55;;;17.00;61.30;;;;;;1033863;28;20039;-79
2021/05/13 02:47:43;;;;;;;13.38;4.72;;;17.00;61.50;;;;;;1036344;28;20030;-77
2021/05/13 02:48:14;;;;;;;18.58;4.90;;;17.00;61.60;;;;;;1036304;28;20026;-79
2021/05/13 02:48:46;;;;;;;14.55;4.75;;;17.00;61.60;;;;;;1039862;28;20530;-79